createdAt,value
2022-08-26T00:01:41.623Z,101199.09
2022-08-26T00:04:46.567Z,101206.50
2022-08-26T00:07:48.365Z,101203.97
2022-08-26T00:10:50.463Z,101204.97
2022-08-26T00:13:52.566Z,101202.44
2022-08-26T00:16:55.196Z,101201.75
2022-08-26T00:19:56.901Z,101205.44
2022-08-26T00:22:59.091Z,101208.47
2022-08-26T00:26:03.488Z,101200.66
2022-08-26T00:29:06.040Z,101193.72
2022-08-26T00:32:07.732Z,101192.03
2022-08-26T00:35:11.850Z,101194.06
2022-08-26T00:38:14.200Z,101192.53
2022-08-26T00:41:18.831Z,101187.13
2022-08-26T00:44:22.304Z,101186.41
2022-08-26T00:47:32.366Z,101191.97
2022-08-26T00:50:41.613Z,101185.88
2022-08-26T00:53:54.625Z,101181.66
2022-08-26T00:57:00.810Z,101181.81
2022-08-26T01:00:09.524Z,101176.72
2022-08-26T01:03:12.672Z,101179.56
2022-08-26T01:06:15.194Z,101179.91
2022-08-26T01:09:19.030Z,101180.91
2022-08-26T01:12:22.181Z,101182.94
2022-08-26T01:15:27.741Z,101184.94
2022-08-26T01:18:35.988Z,101187.97
2022-08-26T01:21:46.776Z,101186.44
2022-08-26T01:24:50.840Z,101183.19
2022-08-26T01:27:55.251Z,101184.34
2022-08-26T01:31:01.108Z,101179.41
2022-08-26T01:34:10.918Z,101172.47
2022-08-26T01:37:22.019Z,101180.75
2022-08-26T01:40:28.367Z,101181.06
2022-08-26T01:43:32.890Z,101182.22
2022-08-26T01:46:34.936Z,101179.50
2022-08-26T01:49:37.465Z,101184.91
2022-08-26T01:52:42.707Z,101178.66
2022-08-26T01:55:48.014Z,101175.22
2022-08-26T01:58:54.154Z,101173.88
2022-08-26T02:01:56.473Z,101173.16
2022-08-26T02:05:03.816Z,101182.28
2022-08-26T02:08:06.020Z,101179.88
2022-08-26T02:11:08.060Z,101174.66
2022-08-26T02:14:26.765Z,101175.66
2022-08-26T02:17:45.116Z,101174.97
2022-08-26T02:20:46.785Z,101175.94
2022-08-26T02:23:56.167Z,101180.50
2022-08-26T02:26:58.493Z,101171.56
2022-08-26T02:30:11.060Z,101175.25
2022-08-26T02:33:12.899Z,101176.97
2022-08-26T02:36:23.859Z,101165.31
2022-08-26T02:39:32.484Z,101168.00
2022-08-26T02:42:34.226Z,101172.38
2022-08-26T02:45:37.085Z,101167.84
2022-08-26T02:48:39.204Z,101165.00
2022-08-26T02:51:40.880Z,101161.25
2022-08-26T02:54:45.468Z,101160.28
2022-08-26T02:57:47.192Z,101162.97
2022-08-26T03:00:53.059Z,101152.16
2022-08-26T03:03:55.804Z,101152.16
2022-08-26T03:06:57.618Z,101152.31
2022-08-26T03:09:59.491Z,101149.94
2022-08-26T03:13:01.162Z,101151.09
2022-08-26T03:16:07.408Z,101147.72
2022-08-26T03:19:09.846Z,101148.00
2022-08-26T03:22:12.055Z,101151.03
2022-08-26T03:25:16.889Z,101145.78
2022-08-26T03:28:19.362Z,101148.78
2022-08-26T03:31:21.472Z,101135.41
2022-08-26T03:34:26.264Z,101141.16
2022-08-26T03:37:28.049Z,101138.91
2022-08-26T03:40:30.331Z,101139.22
2022-08-26T03:43:31.999Z,101133.44
2022-08-26T03:46:34.648Z,101133.91
2022-08-26T03:49:36.390Z,101133.38
2022-08-26T03:52:43.035Z,101140.78
2022-08-26T03:55:45.968Z,101137.41
2022-08-26T03:58:47.978Z,101138.22
2022-08-26T04:01:52.639Z,101135.50
2022-08-26T04:04:54.265Z,101130.13
2022-08-26T04:07:56.001Z,101129.28
2022-08-26T04:10:58.096Z,101139.06
2022-08-26T04:14:01.991Z,101131.81
2022-08-26T04:17:05.123Z,101138.09
2022-08-26T04:20:08.420Z,101128.94
2022-08-26T04:23:11.492Z,101129.81
2022-08-26T04:26:13.057Z,101129.81
2022-08-26T04:29:21.163Z,101129.50
2022-08-26T04:32:22.720Z,101131.53
2022-08-26T04:35:26.172Z,101131.66
2022-08-26T04:38:28.288Z,101134.34
2022-08-26T04:41:31.697Z,101130.84
2022-08-26T04:44:35.592Z,101131.81
2022-08-26T04:47:37.419Z,101127.41
2022-08-26T04:50:39.584Z,101130.97
2022-08-26T04:53:44.918Z,101136.28
2022-08-26T04:56:49.487Z,101142.47
2022-08-26T04:59:51.117Z,101145.94
2022-08-26T05:02:53.181Z,101139.84
2022-08-26T05:05:54.849Z,101141.53
2022-08-26T05:08:57.023Z,101146.47
2022-08-26T05:12:00.235Z,101146.53
2022-08-26T05:15:01.972Z,101145.22
2022-08-26T05:18:06.382Z,101153.03
2022-08-26T05:21:16.530Z,101154.88
2022-08-26T05:24:18.344Z,101154.78
2022-08-26T05:27:19.960Z,101153.56
2022-08-26T05:30:22.002Z,101147.47
2022-08-26T05:33:24.037Z,101148.50
2022-08-26T05:36:28.412Z,101156.59
2022-08-26T05:39:32.470Z,101155.28
2022-08-26T05:42:34.497Z,101161.06
2022-08-26T05:45:42.305Z,101162.28
2022-08-26T05:48:47.616Z,101149.59
2022-08-26T05:51:49.177Z,101152.69
2022-08-26T05:54:52.476Z,101163.56
2022-08-26T05:57:54.050Z,101159.41
2022-08-26T06:01:26.027Z,101160.47
2022-08-26T06:04:28.106Z,101150.88
2022-08-26T06:07:50.313Z,101154.66
2022-08-26T06:10:55.161Z,101158.88
2022-08-26T06:14:02.725Z,101154.34
2022-08-26T06:17:05.447Z,101156.88
2022-08-26T06:20:07.738Z,101154.69
2022-08-26T06:23:29.486Z,101147.28
2022-08-26T06:26:32.388Z,101156.91
2022-08-26T06:29:36.211Z,101160.31
2022-08-26T06:32:39.215Z,101160.16
2022-08-26T06:35:42.583Z,101150.16
2022-08-26T06:38:44.299Z,101157.97
2022-08-26T06:41:46.327Z,101158.34
2022-08-26T06:44:48.055Z,101152.28
2022-08-26T06:47:49.615Z,101158.75
2022-08-26T06:51:06.568Z,101156.91
2022-08-26T06:54:10.866Z,101162.56
2022-08-26T06:57:14.242Z,101165.28
2022-08-26T07:00:18.800Z,101165.34
2022-08-26T07:03:22.253Z,101161.97
2022-08-26T07:06:25.613Z,101169.44
2022-08-26T07:09:30.372Z,101166.94
2022-08-26T07:12:32.321Z,101177.94
2022-08-26T07:15:36.096Z,101173.56
2022-08-26T07:18:39.048Z,101180.72
2022-08-26T07:21:44.149Z,101172.22
2022-08-26T07:24:45.850Z,101181.59
2022-08-26T07:27:54.080Z,101183.47
2022-08-26T07:30:56.417Z,101188.56
2022-08-26T07:33:59.959Z,101193.66
2022-08-26T07:37:02.223Z,101195.19
2022-08-26T07:40:05.585Z,101197.53
2022-08-26T07:43:09.707Z,101202.97
2022-08-26T07:46:20.813Z,101210.28
2022-08-26T07:49:29.685Z,101209.63
2022-08-26T07:52:31.644Z,101205.88
2022-08-26T07:55:33.616Z,101206.88
2022-08-26T07:58:38.000Z,101198.72
2022-08-26T08:01:40.349Z,101195.63
2022-08-26T08:04:46.796Z,101206.66
2022-08-26T08:07:49.496Z,101197.47
2022-08-26T08:10:56.508Z,101206.28
2022-08-26T08:14:00.747Z,101200.97
2022-08-26T08:17:02.622Z,101208.63
2022-08-26T08:20:05.365Z,101209.78
2022-08-26T08:23:07.219Z,101210.78
2022-08-26T08:26:10.885Z,101212.59
2022-08-26T08:29:12.698Z,101209.38
2022-08-26T08:32:15.375Z,101201.53
2022-08-26T08:35:18.876Z,101205.38
2022-08-26T08:38:20.490Z,101202.81
2022-08-26T08:41:51.416Z,101203.81
2022-08-26T08:44:57.569Z,101209.38
2022-08-26T08:48:02.754Z,101208.47
2022-08-26T08:51:07.612Z,101206.38
2022-08-26T08:54:10.627Z,101208.00
2022-08-26T08:57:31.600Z,101204.38
2022-08-26T09:00:46.705Z,101198.03
2022-08-26T09:04:09.002Z,101190.66
2022-08-26T09:07:18.651Z,101189.97
2022-08-26T09:10:32.401Z,101191.75
2022-08-26T09:13:34.307Z,101190.34
2022-08-26T09:16:57.978Z,101195.72
2022-08-26T09:20:14.958Z,101193.09
2022-08-26T09:23:17.146Z,101197.63
2022-08-26T09:26:29.660Z,101200.25
2022-08-26T09:29:42.864Z,101206.66
2022-08-26T09:33:01.921Z,101199.78
2022-08-26T09:36:26.282Z,101201.63
2022-08-26T09:39:33.137Z,101192.78
2022-08-26T09:42:34.967Z,101192.59
2022-08-26T09:45:38.958Z,101191.06
2022-08-26T09:48:42.705Z,101186.53
2022-08-26T09:51:44.729Z,101191.25
2022-08-26T09:55:03.624Z,101194.06
2022-08-26T09:58:07.990Z,101191.41
2022-08-26T10:01:33.214Z,101188.09
2022-08-26T10:04:35.905Z,101192.31
2022-08-26T10:07:41.819Z,101188.19
2022-08-26T10:10:45.370Z,101191.56
2022-08-26T10:13:51.323Z,101189.50
2022-08-26T10:17:00.869Z,101189.13
2022-08-26T10:20:23.103Z,101184.94
2022-08-26T10:23:29.294Z,101190.66
2022-08-26T10:26:51.498Z,101182.56
2022-08-26T10:30:01.107Z,101185.16
2022-08-26T10:33:10.150Z,101187.41
2022-08-26T10:36:52.312Z,101183.31
2022-08-26T10:40:18.801Z,101189.66
2022-08-26T10:43:30.854Z,101185.94
2022-08-26T10:46:47.549Z,101179.03
2022-08-26T10:49:52.741Z,101179.50
2022-08-26T10:53:12.050Z,101175.53
2022-08-26T10:56:48.334Z,101180.63
2022-08-26T11:00:29.881Z,101184.78
2022-08-26T11:03:49.760Z,101183.41
2022-08-26T11:07:29.487Z,101171.50
2022-08-26T11:10:42.302Z,101180.25
2022-08-26T11:14:05.625Z,101185.34
2022-08-26T11:17:11.783Z,101174.81
2022-08-26T11:20:44.186Z,101170.44
2022-08-26T11:23:50.277Z,101170.66
2022-08-26T11:26:56.204Z,101167.94
2022-08-26T11:30:18.312Z,101160.00
2022-08-26T11:33:54.721Z,101152.91
2022-08-26T11:36:59.711Z,101155.00
2022-08-26T11:40:04.955Z,101153.31
2022-08-26T11:43:13.167Z,101143.25
2022-08-26T11:46:24.946Z,101142.81
2022-08-26T11:49:28.879Z,101144.75
2022-08-26T11:52:31.606Z,101137.56
2022-08-26T11:55:42.054Z,101137.97
2022-08-26T11:58:45.492Z,101139.25
2022-08-26T12:01:51.065Z,101134.59
2022-08-26T12:04:53.976Z,101132.25
2022-08-26T12:07:57.393Z,101132.06
2022-08-26T12:11:09.177Z,101122.78
2022-08-26T12:14:19.557Z,101119.63
2022-08-26T12:17:27.705Z,101113.91
2022-08-26T12:20:45.836Z,101110.06
2022-08-26T12:23:50.164Z,101110.41
2022-08-26T12:27:11.004Z,101109.31
2022-08-26T12:30:24.646Z,101102.09
2022-08-26T12:33:29.640Z,101122.94
2022-08-26T12:36:36.747Z,101105.63
2022-08-26T12:39:41.673Z,101106.66
2022-08-26T12:42:43.693Z,101110.31
2022-08-26T12:46:00.609Z,101105.91
2022-08-26T12:49:04.090Z,101109.53
2022-08-26T12:52:08.042Z,101105.75
2022-08-26T12:55:23.345Z,101115.06
2022-08-26T12:58:25.003Z,101115.06
2022-08-26T13:01:26.705Z,101123.91
2022-08-26T13:04:42.570Z,101111.47
2022-08-26T13:07:44.179Z,101116.34
2022-08-26T13:10:47.908Z,101118.50
2022-08-26T13:13:51.909Z,101139.19
2022-08-26T13:16:55.046Z,101140.06
2022-08-26T13:20:03.311Z,101162.84
2022-08-26T13:23:05.668Z,101163.06
2022-08-26T13:26:07.319Z,101162.22
2022-08-26T13:29:10.630Z,101157.38
2022-08-26T13:32:12.674Z,101156.97
2022-08-26T13:35:14.870Z,101148.09
2022-08-26T13:38:20.579Z,101135.88
2022-08-26T13:41:34.676Z,101139.28
2022-08-26T13:44:38.972Z,101151.91
2022-08-26T13:47:40.642Z,101150.66
2022-08-26T13:50:42.269Z,101158.41
2022-08-26T13:53:43.985Z,101172.53
2022-08-26T13:56:45.597Z,101169.97
2022-08-26T13:59:47.353Z,101153.53
2022-08-26T14:02:48.996Z,101168.84
2022-08-26T14:05:53.454Z,101179.94
2022-08-26T14:08:55.264Z,101190.19
2022-08-26T14:11:58.963Z,101188.88
2022-08-26T14:15:01.824Z,101191.50
2022-08-26T14:18:06.579Z,101190.59
2022-08-26T14:21:13.257Z,101203.56
2022-08-26T14:24:14.992Z,101189.25
2022-08-26T14:27:16.630Z,101184.53
2022-08-26T14:30:19.093Z,101186.72
2022-08-26T14:33:25.894Z,101183.50
2022-08-26T14:36:34.009Z,101177.16
2022-08-26T14:39:35.842Z,101162.19
2022-08-26T14:42:37.448Z,101169.56
2022-08-26T14:48:49.300Z,101179.25
2022-08-26T14:51:51.015Z,101167.22
2022-08-26T14:54:54.835Z,101160.22
2022-08-26T14:57:57.006Z,101156.78
2022-08-26T15:00:58.717Z,101163.59
2022-08-26T15:04:06.094Z,101159.47
2022-08-26T15:07:09.442Z,101165.25
2022-08-26T15:10:16.835Z,101171.41
2022-08-26T15:13:18.469Z,101177.19
2022-08-26T15:16:20.873Z,101171.22
2022-08-26T15:19:26.668Z,101168.63
2022-08-26T15:22:29.767Z,101159.66
2022-08-26T15:25:31.657Z,101163.72
2022-08-26T15:28:33.262Z,101162.16
2022-08-26T15:31:35.578Z,101164.97
2022-08-26T15:34:37.729Z,101173.44
2022-08-26T15:37:39.560Z,101169.50
2022-08-26T15:40:41.460Z,101168.53
2022-08-26T15:43:43.284Z,101158.38
2022-08-26T15:46:46.089Z,101154.34
2022-08-26T15:49:47.880Z,101147.09
2022-08-26T15:52:49.508Z,101160.63
2022-08-26T15:55:54.162Z,101151.69
2022-08-26T15:58:56.651Z,101150.75
2022-08-26T16:01:59.698Z,101159.47
2022-08-26T16:05:01.774Z,101157.47
2022-08-26T16:08:04.502Z,101157.69
2022-08-26T16:11:06.346Z,101151.13
2022-08-26T16:14:08.611Z,101157.47
2022-08-26T16:17:10.674Z,101170.31
2022-08-26T16:20:12.884Z,101171.22
2022-08-26T16:23:14.674Z,101171.94
2022-08-26T16:26:22.633Z,101179.44
2022-08-26T16:29:24.601Z,101171.25
2022-08-26T16:32:30.672Z,101169.41
2022-08-26T16:35:32.837Z,101180.63
2022-08-26T16:38:35.702Z,101183.03
2022-08-26T16:41:37.685Z,101182.53
2022-08-26T16:44:44.476Z,101197.06
2022-08-26T16:47:48.412Z,101204.88
2022-08-26T16:50:50.943Z,101204.38
2022-08-26T16:53:54.601Z,101205.06
2022-08-26T16:56:56.890Z,101213.94
2022-08-26T16:59:58.740Z,101214.50
2022-08-26T17:03:01.473Z,101223.00
2022-08-26T17:06:03.396Z,101220.63
2022-08-26T17:09:05.283Z,101223.53
2022-08-26T17:12:07.710Z,101224.06
2022-08-26T17:15:10.074Z,101218.97
2022-08-26T17:18:12.128Z,101228.13
2022-08-26T17:21:14.620Z,101235.44
2022-08-26T17:24:16.369Z,101239.72
2022-08-26T17:27:18.117Z,101243.97
2022-08-26T17:30:21.137Z,101249.94
2022-08-26T17:33:24.595Z,101253.28
2022-08-26T17:36:27.993Z,101257.19
2022-08-26T17:39:30.265Z,101256.72
2022-08-26T17:42:32.258Z,101249.78
2022-08-26T17:45:36.975Z,101250.25
2022-08-26T17:48:41.615Z,101247.91
2022-08-26T17:51:43.248Z,101237.53
2022-08-26T17:54:44.821Z,101244.00
2022-08-26T17:57:53.642Z,101242.66
2022-08-26T18:00:55.599Z,101244.69
2022-08-26T18:04:00.374Z,101237.72
2022-08-26T18:07:06.366Z,101231.63
2022-08-26T18:10:13.591Z,101237.41
2022-08-26T18:13:16.295Z,101239.63
2022-08-26T18:16:19.331Z,101241.16
2022-08-26T18:19:21.031Z,101247.09
2022-08-26T18:22:23.305Z,101251.00
2022-08-26T18:25:25.343Z,101259.13
2022-08-26T18:28:26.993Z,101256.75
2022-08-26T18:31:29.236Z,101257.09
2022-08-26T18:34:31.721Z,101251.66
2022-08-26T18:37:34.276Z,101249.94
2022-08-26T18:40:41.069Z,101258.94
2022-08-26T18:43:43.236Z,101258.09
2022-08-26T18:46:46.240Z,101256.59
2022-08-26T18:49:48.680Z,101266.63
2022-08-26T18:52:50.231Z,101266.59
2022-08-26T18:55:52.049Z,101272.66
2022-08-26T18:58:53.813Z,101278.78
2022-08-26T19:01:55.535Z,101287.25
2022-08-26T19:04:57.407Z,101284.19
2022-08-26T19:07:59.095Z,101286.53
2022-08-26T19:11:01.222Z,101284.16
2022-08-26T19:14:03.777Z,101283.66
2022-08-26T19:17:05.669Z,101286.91
2022-08-26T19:20:08.071Z,101283.19
2022-08-26T19:23:30.400Z,101285.03
2022-08-26T19:26:37.201Z,101285.38
2022-08-26T19:29:41.302Z,101276.88
2022-08-26T19:32:42.993Z,101274.00
2022-08-26T19:35:44.619Z,101265.66
2022-08-26T19:38:46.384Z,101260.75
2022-08-26T19:41:48.236Z,101253.44
2022-08-26T19:45:15.724Z,101253.25
2022-08-26T19:48:28.243Z,101243.91
2022-08-26T19:51:33.195Z,101231.84
2022-08-26T19:54:36.141Z,101237.94
2022-08-26T19:57:39.358Z,101243.84
2022-08-26T20:00:42.451Z,101243.50
2022-08-26T20:03:45.036Z,101241.97
2022-08-26T20:06:46.681Z,101237.56
2022-08-26T20:09:53.438Z,101239.59
2022-08-26T20:12:55.113Z,101241.94
2022-08-26T20:15:56.913Z,101244.97
2022-08-26T20:19:17.342Z,101256.97
2022-08-26T20:22:19.708Z,101256.47
2022-08-26T20:25:21.683Z,101263.88
2022-08-26T20:28:23.376Z,101263.06
2022-08-26T20:31:26.542Z,101267.06
2022-08-26T20:34:28.343Z,101266.06
2022-08-26T20:37:30.017Z,101268.78
2022-08-26T20:40:32.435Z,101268.94
2022-08-26T20:43:34.183Z,101276.06
2022-08-26T20:46:36.132Z,101275.19
2022-08-26T20:49:37.831Z,101278.59
2022-08-26T20:52:40.166Z,101279.75
2022-08-26T20:55:41.797Z,101288.25
2022-08-26T20:58:43.420Z,101287.00
2022-08-26T21:01:46.466Z,101293.59
2022-08-26T21:04:48.205Z,101296.44
2022-08-26T21:07:50.485Z,101288.50
2022-08-26T21:10:52.235Z,101288.50
2022-08-26T21:14:06.731Z,101296.44
2022-08-26T21:17:16.320Z,101294.41
2022-08-26T21:20:18.191Z,101294.88
2022-08-26T21:23:19.869Z,101293.31
2022-08-26T21:26:21.698Z,101296.16
2022-08-26T21:29:23.829Z,101295.34
2022-08-26T21:32:25.543Z,101291.59
2022-08-26T21:35:27.245Z,101299.03
2022-08-26T21:38:30.993Z,101304.63
2022-08-26T21:41:32.780Z,101301.19
2022-08-26T21:44:34.463Z,101298.66
2022-08-26T21:47:36.581Z,101300.50
2022-08-26T21:50:38.336Z,101304.94
2022-08-26T21:53:41.033Z,101313.91
2022-08-26T21:56:46.129Z,101309.47
2022-08-26T21:59:47.920Z,101304.56
2022-08-26T22:02:50.244Z,101304.88
2022-08-26T22:05:52.011Z,101301.78
2022-08-26T22:08:55.408Z,101299.25
2022-08-26T22:11:57.486Z,101288.56
2022-08-26T22:14:59.385Z,101291.25
2022-08-26T22:18:04.236Z,101292.84
2022-08-26T22:21:08.609Z,101294.63
2022-08-26T22:24:12.207Z,101299.81
2022-08-26T22:27:14.152Z,101298.47
2022-08-26T22:30:16.041Z,101290.94
2022-08-26T22:33:18.105Z,101292.59
2022-08-26T22:36:23.458Z,101303.22
2022-08-26T22:39:26.633Z,101297.56
2022-08-26T22:42:28.198Z,101295.31
2022-08-26T22:45:31.419Z,101302.75
2022-08-26T22:48:33.267Z,101303.22
2022-08-26T22:51:35.153Z,101314.34
2022-08-26T22:54:36.767Z,101309.25
2022-08-26T22:57:38.313Z,101311.44
2022-08-26T23:00:40.906Z,101300.91
2022-08-26T23:03:42.986Z,101303.19
2022-08-26T23:06:47.578Z,101305.34
2022-08-26T23:09:49.688Z,101302.94
2022-08-26T23:12:52.510Z,101308.81
2022-08-26T23:16:13.478Z,101302.16
2022-08-26T23:19:19.448Z,101305.19
2022-08-26T23:22:21.072Z,101311.59
2022-08-26T23:25:23.186Z,101308.38
2022-08-26T23:28:26.503Z,101305.78
2022-08-26T23:31:28.295Z,101294.28
2022-08-26T23:34:55.726Z,101289.06
2022-08-26T23:38:02.448Z,101288.50
2022-08-26T23:41:04.128Z,101284.41
2022-08-26T23:44:05.906Z,101282.13
2022-08-26T23:47:08.405Z,101283.28
2022-08-26T23:50:10.684Z,101282.75
2022-08-26T23:53:19.365Z,101280.19
2022-08-26T23:56:21.113Z,101278.81
2022-08-26T23:59:22.788Z,101279.09
